sensor_id;sensor_type;location;lat;lon;timestamp;pressure;altitude;pressure_sealevel;temperature;humidity
13387;BME280;6763;48.524;9.044;2022-11-24T00:01:20;97090.78;;;11.03;58.86
13387;BME280;6763;48.524;9.044;2022-11-24T00:04:00;97082.25;;;11.00;58.45
13387;BME280;6763;48.524;9.044;2022-11-24T00:06:26;97080.47;;;11.02;58.52
13387;BME280;6763;48.524;9.044;2022-11-24T00:08:52;97081.22;;;11.05;58.38
13387;BME280;6763;48.524;9.044;2022-11-24T00:11:22;97077.75;;;11.06;58.58
13387;BME280;6763;48.524;9.044;2022-11-24T00:13:49;97074.31;;;11.06;58.53
13387;BME280;6763;48.524;9.044;2022-11-24T00:16:19;97085.56;;;11.05;58.56
13387;BME280;6763;48.524;9.044;2022-11-24T00:18:46;97088.03;;;11.08;58.55
13387;BME280;6763;48.524;9.044;2022-11-24T00:21:12;97091.53;;;11.07;58.49
13387;BME280;6763;48.524;9.044;2022-11-24T00:23:38;97086.22;;;11.11;58.45
13387;BME280;6763;48.524;9.044;2022-11-24T00:26:12;97093.97;;;11.11;58.34
13387;BME280;6763;48.524;9.044;2022-11-24T00:28:38;97094.84;;;11.12;58.29
13387;BME280;6763;48.524;9.044;2022-11-24T00:31:16;97102.63;;;11.10;57.96
13387;BME280;6763;48.524;9.044;2022-11-24T00:33:42;97106.16;;;11.08;58.15
13387;BME280;6763;48.524;9.044;2022-11-24T00:36:07;97110.56;;;11.06;58.32
13387;BME280;6763;48.524;9.044;2022-11-24T00:38:35;97110.56;;;11.06;57.91
13387;BME280;6763;48.524;9.044;2022-11-24T00:41:00;97118.38;;;11.04;58.06
13387;BME280;6763;48.524;9.044;2022-11-24T00:43:25;97126.19;;;11.03;58.07
13387;BME280;6763;48.524;9.044;2022-11-24T00:45:51;97135.84;;;10.98;58.10
13387;BME280;6763;48.524;9.044;2022-11-24T00:48:16;97129.81;;;10.97;57.95
13387;BME280;6763;48.524;9.044;2022-11-24T00:50:41;97129.81;;;10.97;57.87
13387;BME280;6763;48.524;9.044;2022-11-24T00:53:07;97132.50;;;10.94;58.21
13387;BME280;6763;48.524;9.044;2022-11-24T00:55:32;97126.56;;;10.91;58.07
13387;BME280;6763;48.524;9.044;2022-11-24T00:57:58;97134.28;;;10.92;58.15
13387;BME280;6763;48.524;9.044;2022-11-24T01:00:23;97134.34;;;10.91;57.90
13387;BME280;6763;48.524;9.044;2022-11-24T01:02:48;97131.75;;;10.91;58.09
13387;BME280;6763;48.524;9.044;2022-11-24T01:05:14;97143.84;;;10.90;58.40
13387;BME280;6763;48.524;9.044;2022-11-24T01:07:39;97146.59;;;10.84;57.70
13387;BME280;6763;48.524;9.044;2022-11-24T01:10:05;97152.78;;;10.80;57.72
13387;BME280;6763;48.524;9.044;2022-11-24T01:12:30;97156.47;;;10.72;57.56
13387;BME280;6763;48.524;9.044;2022-11-24T01:14:57;97160.19;;;10.63;57.79
13387;BME280;6763;48.524;9.044;2022-11-24T01:17:22;97164.53;;;10.61;57.85
13387;BME280;6763;48.524;9.044;2022-11-24T01:19:47;97158.75;;;10.53;57.87
13387;BME280;6763;48.524;9.044;2022-11-24T01:22:14;97166.53;;;10.53;57.79
13387;BME280;6763;48.524;9.044;2022-11-24T01:24:39;97176.09;;;10.49;58.35
13387;BME280;6763;48.524;9.044;2022-11-24T01:27:04;97182.06;;;10.51;57.92
13387;BME280;6763;48.524;9.044;2022-11-24T01:29:30;97180.28;;;10.53;57.99
13387;BME280;6763;48.524;9.044;2022-11-24T01:31:55;97188.75;;;10.58;58.39
13387;BME280;6763;48.524;9.044;2022-11-24T01:34:23;97190.41;;;10.63;58.27
13387;BME280;6763;48.524;9.044;2022-11-24T01:36:49;97199.81;;;10.65;58.75
13387;BME280;6763;48.524;9.044;2022-11-24T01:39:14;97200.59;;;10.67;58.90
13387;BME280;6763;48.524;9.044;2022-11-24T01:41:40;97204.72;;;10.74;58.37
13387;BME280;6763;48.524;9.044;2022-11-24T01:44:26;97212.47;;;10.74;58.23
13387;BME280;6763;48.524;9.044;2022-11-24T01:47:04;97205.63;;;10.73;58.18
13387;BME280;6763;48.524;9.044;2022-11-24T01:49:45;97215.06;;;10.74;58.34
13387;BME280;6763;48.524;9.044;2022-11-24T01:54:42;97214.25;;;10.74;58.56
13387;BME280;6763;48.524;9.044;2022-11-24T01:57:19;97217.63;;;10.76;58.23
13387;BME280;6763;48.524;9.044;2022-11-24T01:59:48;97222.81;;;10.76;58.54
13387;BME280;6763;48.524;9.044;2022-11-24T02:02:15;97214.97;;;10.77;58.31
13387;BME280;6763;48.524;9.044;2022-11-24T02:04:41;97224.53;;;10.75;57.74
13387;BME280;6763;48.524;9.044;2022-11-24T02:07:08;97223.75;;;10.72;58.02
13387;BME280;6763;48.524;9.044;2022-11-24T02:09:54;97226.53;;;10.66;58.03
13387;BME280;6763;48.524;9.044;2022-11-24T02:12:23;97228.28;;;10.64;57.97
13387;BME280;6763;48.524;9.044;2022-11-24T02:14:50;97226.69;;;10.59;57.86
13387;BME280;6763;48.524;9.044;2022-11-24T02:17:16;97225.09;;;10.55;57.57
13387;BME280;6763;48.524;9.044;2022-11-24T02:19:54;97230.44;;;10.49;57.40
13387;BME280;6763;48.524;9.044;2022-11-24T02:22:28;97226.31;;;10.42;57.80
13387;BME280;6763;48.524;9.044;2022-11-24T02:24:55;97223.88;;;10.36;57.24
13387;BME280;6763;48.524;9.044;2022-11-24T02:27:22;97218.13;;;10.27;57.16
13387;BME280;6763;48.524;9.044;2022-11-24T02:29:48;97221.78;;;10.18;56.91
13387;BME280;6763;48.524;9.044;2022-11-24T02:32:14;97224.53;;;10.12;57.03
13387;BME280;6763;48.524;9.044;2022-11-24T02:34:40;97222.84;;;10.10;57.25
13387;BME280;6763;48.524;9.044;2022-11-24T02:37:06;97222.88;;;10.08;57.62
13387;BME280;6763;48.524;9.044;2022-11-24T02:39:31;97216.19;;;10.01;56.93
13387;BME280;6763;48.524;9.044;2022-11-24T02:42:00;97215.47;;;9.94;56.81
13387;BME280;6763;48.524;9.044;2022-11-24T02:44:29;97215.75;;;9.84;56.99
13387;BME280;6763;48.524;9.044;2022-11-24T02:47:05;97217.72;;;9.74;56.95
13387;BME280;6763;48.524;9.044;2022-11-24T02:49:30;97210.16;;;9.65;56.82
13387;BME280;6763;48.524;9.044;2022-11-24T02:51:55;97212.09;;;9.57;58.36
13387;BME280;6763;48.524;9.044;2022-11-24T02:54:21;97217.25;;;9.57;58.57
13387;BME280;6763;48.524;9.044;2022-11-24T02:56:46;97223.38;;;9.53;57.46
13387;BME280;6763;48.524;9.044;2022-11-24T02:59:11;97227.00;;;9.46;57.27
13387;BME280;6763;48.524;9.044;2022-11-24T03:01:37;97234.88;;;9.40;56.92
13387;BME280;6763;48.524;9.044;2022-11-24T03:04:02;97232.47;;;9.32;57.51
13387;BME280;6763;48.524;9.044;2022-11-24T03:06:27;97220.66;;;9.22;56.92
13387;BME280;6763;48.524;9.044;2022-11-24T03:08:53;97226.88;;;9.14;56.89
13387;BME280;6763;48.524;9.044;2022-11-24T03:11:18;97235.59;;;9.08;56.55
13387;BME280;6763;48.524;9.044;2022-11-24T03:13:43;97241.81;;;9.00;57.23
13387;BME280;6763;48.524;9.044;2022-11-24T03:16:09;97238.56;;;8.90;57.36
13387;BME280;6763;48.524;9.044;2022-11-24T03:18:34;97234.31;;;8.88;57.50
13387;BME280;6763;48.524;9.044;2022-11-24T03:20:59;97242.13;;;8.85;57.37
13387;BME280;6763;48.524;9.044;2022-11-24T03:23:25;97245.69;;;8.79;57.53
13387;BME280;6763;48.524;9.044;2022-11-24T03:25:50;97245.72;;;8.78;57.53
13387;BME280;6763;48.524;9.044;2022-11-24T03:28:16;97243.25;;;8.71;57.61
13387;BME280;6763;48.524;9.044;2022-11-24T03:30:41;97255.38;;;8.68;57.59
13387;BME280;6763;48.524;9.044;2022-11-24T03:33:06;97258.88;;;8.64;57.34
13387;BME280;6763;48.524;9.044;2022-11-24T03:35:32;97265.84;;;8.59;56.75
13387;BME280;6763;48.524;9.044;2022-11-24T03:37:57;97262.59;;;8.49;56.88
13387;BME280;6763;48.524;9.044;2022-11-24T03:40:23;97268.78;;;8.42;57.12
13387;BME280;6763;48.524;9.044;2022-11-24T03:42:48;97273.16;;;8.36;56.31
13387;BME280;6763;48.524;9.044;2022-11-24T03:45:13;97270.72;;;8.28;56.17
13387;BME280;6763;48.524;9.044;2022-11-24T03:47:39;97279.44;;;8.21;57.59
13387;BME280;6763;48.524;9.044;2022-11-24T03:50:04;97278.56;;;8.22;58.35
13387;BME280;6763;48.524;9.044;2022-11-24T03:52:30;97282.81;;;8.25;58.15
13387;BME280;6763;48.524;9.044;2022-11-24T03:54:59;97275.91;;;8.25;57.90
13387;BME280;6763;48.524;9.044;2022-11-24T03:57:24;97282.00;;;8.21;58.10
13387;BME280;6763;48.524;9.044;2022-11-24T03:59:49;97275.13;;;8.20;57.82
13387;BME280;6763;48.524;9.044;2022-11-24T04:02:15;97277.75;;;8.19;57.58
13387;BME280;6763;48.524;9.044;2022-11-24T04:04:40;97287.25;;;8.15;57.25
13387;BME280;6763;48.524;9.044;2022-11-24T04:07:05;97290.78;;;8.11;57.29
13387;BME280;6763;48.524;9.044;2022-11-24T04:09:30;97290.91;;;8.03;56.79
13387;BME280;6763;48.524;9.044;2022-11-24T04:11:56;97293.63;;;7.94;56.55
13387;BME280;6763;48.524;9.044;2022-11-24T04:14:40;97287.81;;;7.83;56.53
13387;BME280;6763;48.524;9.044;2022-11-24T04:17:05;97296.41;;;7.81;56.69
13387;BME280;6763;48.524;9.044;2022-11-24T04:19:31;97293.88;;;7.79;57.09
13387;BME280;6763;48.524;9.044;2022-11-24T04:21:56;97293.78;;;7.85;57.52
13387;BME280;6763;48.524;9.044;2022-11-24T04:24:21;97293.66;;;7.93;58.10
13387;BME280;6763;48.524;9.044;2022-11-24T04:26:47;97302.06;;;8.04;58.47
13387;BME280;6763;48.524;9.044;2022-11-24T04:29:12;97288.22;;;8.09;58.16
13387;BME280;6763;48.524;9.044;2022-11-24T04:31:37;97300.28;;;8.09;58.37
13387;BME280;6763;48.524;9.044;2022-11-24T04:34:03;97305.44;;;8.07;58.22
13387;BME280;6763;48.524;9.044;2022-11-24T04:36:28;97295.16;;;8.04;57.62
13387;BME280;6763;48.524;9.044;2022-11-24T04:38:53;97307.19;;;8.05;57.97
13387;BME280;6763;48.524;9.044;2022-11-24T04:41:22;97304.53;;;8.11;58.23
13387;BME280;6763;48.524;9.044;2022-11-24T04:43:48;97300.06;;;8.21;58.66
13387;BME280;6763;48.524;9.044;2022-11-24T04:46:14;97307.66;;;8.30;59.10
13387;BME280;6763;48.524;9.044;2022-11-24T04:48:40;97302.28;;;8.42;58.76
13387;BME280;6763;48.524;9.044;2022-11-24T04:51:06;97298.81;;;8.45;58.47
13387;BME280;6763;48.524;9.044;2022-11-24T04:53:31;97310.06;;;8.39;58.09
13387;BME280;6763;48.524;9.044;2022-11-24T04:55:56;97306.81;;;8.30;57.81
13387;BME280;6763;48.524;9.044;2022-11-24T04:58:22;97317.22;;;8.22;58.41
13387;BME280;6763;48.524;9.044;2022-11-24T05:00:47;97318.13;;;8.18;58.35
13387;BME280;6763;48.524;9.044;2022-11-24T05:03:12;97324.28;;;8.11;57.37
13387;BME280;6763;48.524;9.044;2022-11-24T05:05:38;97321.78;;;8.05;57.44
13387;BME280;6763;48.524;9.044;2022-11-24T05:08:03;97325.31;;;7.99;57.41
13387;BME280;6763;48.524;9.044;2022-11-24T05:10:28;97327.13;;;7.96;58.02
13387;BME280;6763;48.524;9.044;2022-11-24T05:13:02;97324.53;;;7.96;57.96
13387;BME280;6763;48.524;9.044;2022-11-24T05:15:28;97337.41;;;7.96;57.66
13387;BME280;6763;48.524;9.044;2022-11-24T05:17:54;97336.56;;;7.95;58.28
13387;BME280;6763;48.524;9.044;2022-11-24T05:20:19;97331.38;;;7.98;57.87
13387;BME280;6763;48.524;9.044;2022-11-24T05:22:45;97335.63;;;8.01;57.87
13387;BME280;6763;48.524;9.044;2022-11-24T05:25:11;97339.84;;;8.05;58.37
13387;BME280;6763;48.524;9.044;2022-11-24T05:27:37;97335.41;;;8.13;58.44
13387;BME280;6763;48.524;9.044;2022-11-24T05:30:03;97344.72;;;8.22;58.52
13387;BME280;6763;48.524;9.044;2022-11-24T05:32:29;97343.78;;;8.29;58.50
13387;BME280;6763;48.524;9.044;2022-11-24T05:34:54;97343.63;;;8.36;58.86
13387;BME280;6763;48.524;9.044;2022-11-24T05:37:20;97339.34;;;8.37;58.50
13387;BME280;6763;48.524;9.044;2022-11-24T05:39:46;97341.06;;;8.38;58.05
13387;BME280;6763;48.524;9.044;2022-11-24T05:42:11;97345.50;;;8.28;57.73
13387;BME280;6763;48.524;9.044;2022-11-24T05:44:55;97355.94;;;8.18;57.79
13387;BME280;6763;48.524;9.044;2022-11-24T05:47:22;97352.69;;;8.08;57.28
13387;BME280;6763;48.524;9.044;2022-11-24T05:49:47;97347.66;;;7.99;57.63
13387;BME280;6763;48.524;9.044;2022-11-24T05:52:13;97358.06;;;7.93;57.61
13387;BME280;6763;48.524;9.044;2022-11-24T05:54:38;97371.78;;;7.95;57.69
13387;BME280;6763;48.524;9.044;2022-11-24T05:57:04;97357.97;;;7.99;57.96
13387;BME280;6763;48.524;9.044;2022-11-24T05:59:29;97355.41;;;7.97;58.21
13387;BME280;6763;48.524;9.044;2022-11-24T06:01:55;97360.50;;;8.03;58.34
13387;BME280;6763;48.524;9.044;2022-11-24T06:04:20;97365.63;;;8.03;58.83
13387;BME280;6763;48.524;9.044;2022-11-24T06:06:46;97366.31;;;8.14;58.88
13387;BME280;6763;48.524;9.044;2022-11-24T06:09:11;97362.69;;;8.26;58.90
13387;BME280;6763;48.524;9.044;2022-11-24T06:11:37;97366.88;;;8.35;58.94
13387;BME280;6763;48.524;9.044;2022-11-24T06:14:02;97359.94;;;8.40;58.57
13387;BME280;6763;48.524;9.044;2022-11-24T06:16:28;97356.41;;;8.44;58.69
13387;BME280;6763;48.524;9.044;2022-11-24T06:18:54;97358.91;;;8.48;58.60
13387;BME280;6763;48.524;9.044;2022-11-24T06:21:19;97353.72;;;8.50;58.39
13387;BME280;6763;48.524;9.044;2022-11-24T06:23:47;97350.19;;;8.54;58.72
13387;BME280;6763;48.524;9.044;2022-11-24T06:26:13;97344.19;;;8.55;58.70
13387;BME280;6763;48.524;9.044;2022-11-24T06:28:38;97338.06;;;8.59;59.21
13387;BME280;6763;48.524;9.044;2022-11-24T06:31:04;97342.19;;;8.69;59.93
13387;BME280;6763;48.524;9.044;2022-11-24T06:33:31;97333.38;;;8.81;59.72
13387;BME280;6763;48.524;9.044;2022-11-24T06:36:05;97346.13;;;8.88;59.24
13387;BME280;6763;48.524;9.044;2022-11-24T06:38:33;97357.22;;;8.95;59.42
13387;BME280;6763;48.524;9.044;2022-11-24T06:43:26;97368.16;;;9.07;59.59
13387;BME280;6763;48.524;9.044;2022-11-24T06:45:51;97374.00;;;9.15;59.68
13387;BME280;6763;48.524;9.044;2022-11-24T06:48:17;97371.28;;;9.21;59.38
13387;BME280;6763;48.524;9.044;2022-11-24T06:50:42;97370.31;;;9.28;59.08
13387;BME280;6763;48.524;9.044;2022-11-24T06:53:07;97376.22;;;9.33;59.36
13387;BME280;6763;48.524;9.044;2022-11-24T06:55:33;97376.97;;;9.39;59.27
13387;BME280;6763;48.524;9.044;2022-11-24T06:57:58;97387.22;;;9.43;59.47
13387;BME280;6763;48.524;9.044;2022-11-24T07:00:23;97381.13;;;9.46;59.15
13387;BME280;6763;48.524;9.044;2022-11-24T07:02:49;97388.75;;;9.52;59.37
13387;BME280;6763;48.524;9.044;2022-11-24T07:05:14;97390.31;;;9.59;59.31
13387;BME280;6763;48.524;9.044;2022-11-24T07:07:39;97397.09;;;9.64;59.17
13387;BME280;6763;48.524;9.044;2022-11-24T07:10:05;97403.88;;;9.70;59.03
13387;BME280;6763;48.524;9.044;2022-11-24T07:12:33;97403.78;;;9.73;59.65
13387;BME280;6763;48.524;9.044;2022-11-24T07:14:59;97406.34;;;9.74;59.14
13387;BME280;6763;48.524;9.044;2022-11-24T07:17:24;97407.13;;;9.78;59.17
13387;BME280;6763;48.524;9.044;2022-11-24T07:19:50;97410.53;;;9.80;59.17
13387;BME280;6763;48.524;9.044;2022-11-24T07:22:15;97418.25;;;9.83;59.86
13387;BME280;6763;48.524;9.044;2022-11-24T07:24:40;97419.00;;;9.88;59.46
13387;BME280;6763;48.524;9.044;2022-11-24T07:27:05;97419.75;;;9.91;59.64
13387;BME280;6763;48.524;9.044;2022-11-24T07:29:31;97417.16;;;9.91;59.28
13387;BME280;6763;48.524;9.044;2022-11-24T07:31:57;97424.91;;;9.91;59.27
13387;BME280;6763;48.524;9.044;2022-11-24T07:34:22;97432.66;;;9.93;59.43
13387;BME280;6763;48.524;9.044;2022-11-24T07:36:47;97443.91;;;9.90;59.49
13387;BME280;6763;48.524;9.044;2022-11-24T07:39:14;97460.28;;;9.89;58.90
13387;BME280;6763;48.524;9.044;2022-11-24T07:41:39;97468.97;;;9.87;59.30
13387;BME280;6763;48.524;9.044;2022-11-24T07:44:04;97477.59;;;9.87;59.33
13387;BME280;6763;48.524;9.044;2022-11-24T07:46:33;97482.69;;;9.90;59.86
13387;BME280;6763;48.524;9.044;2022-11-24T07:48:58;97490.41;;;9.92;59.85
13387;BME280;6763;48.524;9.044;2022-11-24T07:51:23;97494.66;;;9.94;60.04
13387;BME280;6763;48.524;9.044;2022-11-24T07:53:49;97496.31;;;9.98;59.91
13387;BME280;6763;48.524;9.044;2022-11-24T07:56:14;97501.38;;;10.03;60.42
13387;BME280;6763;48.524;9.044;2022-11-24T07:58:39;97504.66;;;10.10;60.10
13387;BME280;6763;48.524;9.044;2022-11-24T08:01:10;97493.38;;;10.17;60.25
13387;BME280;6763;48.524;9.044;2022-11-24T08:03:36;97495.78;;;10.24;60.69
13387;BME280;6763;48.524;9.044;2022-11-24T08:06:02;97496.44;;;10.34;60.76
13387;BME280;6763;48.524;9.044;2022-11-24T08:08:29;97499.66;;;10.43;60.65
13387;BME280;6763;48.524;9.044;2022-11-24T08:10:57;97502.91;;;10.53;61.01
13387;BME280;6763;48.524;9.044;2022-11-24T08:13:22;97500.06;;;10.62;60.86
13387;BME280;6763;48.524;9.044;2022-11-24T08:15:48;97498.97;;;10.72;60.58
13387;BME280;6763;48.524;9.044;2022-11-24T08:18:13;97496.19;;;10.81;60.93
13387;BME280;6763;48.524;9.044;2022-11-24T08:20:38;97496.84;;;10.89;61.06
13387;BME280;6763;48.524;9.044;2022-11-24T08:23:04;97502.75;;;10.94;60.87
13387;BME280;6763;48.524;9.044;2022-11-24T08:25:29;97514.66;;;11.01;60.98
13387;BME280;6763;48.524;9.044;2022-11-24T08:27:59;97510.22;;;11.06;61.00
13387;BME280;6763;48.524;9.044;2022-11-24T08:30:24;97516.91;;;11.15;61.29
13387;BME280;6763;48.524;9.044;2022-11-24T08:32:50;97517.53;;;11.25;61.44
13387;BME280;6763;48.524;9.044;2022-11-24T08:35:15;97518.13;;;11.34;61.40
13387;BME280;6763;48.524;9.044;2022-11-24T08:37:40;97513.66;;;11.41;61.08
13387;BME280;6763;48.524;9.044;2022-11-24T08:40:06;97508.28;;;11.47;61.06
13387;BME280;6763;48.524;9.044;2022-11-24T08:42:32;97511.59;;;11.52;60.94
13387;BME280;6763;48.524;9.044;2022-11-24T08:44:57;97508.06;;;11.56;61.10
13387;BME280;6763;48.524;9.044;2022-11-24T08:47:22;97505.31;;;11.62;61.14
13387;BME280;6763;48.524;9.044;2022-11-24T08:49:48;97509.41;;;11.70;61.27
13387;BME280;6763;48.524;9.044;2022-11-24T08:52:14;97512.63;;;11.80;61.28
13387;BME280;6763;48.524;9.044;2022-11-24T08:54:40;97519.25;;;11.89;61.01
13387;BME280;6763;48.524;9.044;2022-11-24T08:57:08;97519.03;;;11.98;60.95
13387;BME280;6763;48.524;9.044;2022-11-24T08:59:34;97523.91;;;12.08;61.12
13387;BME280;6763;48.524;9.044;2022-11-24T09:01:59;97525.50;;;12.12;60.80
13387;BME280;6763;48.524;9.044;2022-11-24T09:04:24;97527.22;;;12.13;60.46
13387;BME280;6763;48.524;9.044;2022-11-24T09:06:49;97535.75;;;12.17;60.40
13387;BME280;6763;48.524;9.044;2022-11-24T09:09:15;97537.41;;;12.19;60.10
13387;BME280;6763;48.524;9.044;2022-11-24T09:11:40;97527.97;;;12.17;59.50
13387;BME280;6763;48.524;9.044;2022-11-24T09:14:05;97532.19;;;12.19;59.80
13387;BME280;6763;48.524;9.044;2022-11-24T09:16:31;97538.22;;;12.21;59.47
13387;BME280;6763;48.524;9.044;2022-11-24T09:18:59;97542.41;;;12.25;58.92
13387;BME280;6763;48.524;9.044;2022-11-24T09:21:24;97548.06;;;12.39;59.85
13387;BME280;6763;48.524;9.044;2022-11-24T09:23:51;97551.00;;;12.57;60.22
13387;BME280;6763;48.524;9.044;2022-11-24T09:26:21;97545.25;;;12.75;60.12
13387;BME280;6763;48.524;9.044;2022-11-24T09:28:47;97553.34;;;12.92;59.97
13387;BME280;6763;48.524;9.044;2022-11-24T09:31:15;97558.03;;;13.09;59.65
13387;BME280;6763;48.524;9.044;2022-11-24T09:33:42;97561.16;;;13.20;59.26
13387;BME280;6763;48.524;9.044;2022-11-24T09:36:07;97562.59;;;13.28;58.27
13387;BME280;6763;48.524;9.044;2022-11-24T09:38:33;97555.44;;;13.35;58.96
13387;BME280;6763;48.524;9.044;2022-11-24T09:44:01;97560.03;;;13.78;58.53
13387;BME280;6763;48.524;9.044;2022-11-24T09:49:14;97563.41;;;14.27;57.94
13387;BME280;6763;48.524;9.044;2022-11-24T09:51:43;97562.84;;;14.44;57.61
13387;BME280;6763;48.524;9.044;2022-11-24T09:54:15;97555.34;;;14.58;57.39
13387;BME280;6763;48.524;9.044;2022-11-24T09:56:42;97559.06;;;14.74;57.07
13387;BME280;6763;48.524;9.044;2022-11-24T09:59:23;97568.53;;;14.99;56.77
13387;BME280;6763;48.524;9.044;2022-11-24T10:01:50;97566.31;;;15.31;57.21
13387;BME280;6763;48.524;9.044;2022-11-24T10:09:43;97576.84;;;15.92;51.44
13387;BME280;6763;48.524;9.044;2022-11-24T10:12:15;97576.03;;;15.70;50.56
13387;BME280;6763;48.524;9.044;2022-11-24T10:25:24;97567.13;;;15.12;49.37
13387;BME280;6763;48.524;9.044;2022-11-24T10:28:16;97572.47;;;14.87;48.95
13387;BME280;6763;48.524;9.044;2022-11-24T10:30:42;97571.34;;;14.71;49.57
13387;BME280;6763;48.524;9.044;2022-11-24T10:33:18;97562.03;;;14.65;49.00
13387;BME280;6763;48.524;9.044;2022-11-24T10:35:59;97559.22;;;14.91;49.04
13387;BME280;6763;48.524;9.044;2022-11-24T10:38:55;97562.75;;;15.12;47.86
13387;BME280;6763;48.524;9.044;2022-11-24T10:41:41;97560.97;;;15.34;47.62
13387;BME280;6763;48.524;9.044;2022-11-24T10:44:11;97572.41;;;15.10;47.55
13387;BME280;6763;48.524;9.044;2022-11-24T10:46:38;97565.22;;;15.15;48.20
13387;BME280;6763;48.524;9.044;2022-11-24T10:49:04;97578.53;;;15.09;48.03
13387;BME280;6763;48.524;9.044;2022-11-24T10:54:20;97587.88;;;15.15;48.24
13387;BME280;6763;48.524;9.044;2022-11-24T10:56:46;97579.59;;;15.25;48.33
13387;BME280;6763;48.524;9.044;2022-11-24T11:01:44;97583.09;;;15.88;47.42
13387;BME280;6763;48.524;9.044;2022-11-24T11:04:19;97568.22;;;15.90;46.68
13387;BME280;6763;48.524;9.044;2022-11-24T11:06:45;97571.75;;;15.89;46.89
13387;BME280;6763;48.524;9.044;2022-11-24T11:09:17;97568.03;;;15.94;46.94
13387;BME280;6763;48.524;9.044;2022-11-24T11:11:44;97558.22;;;15.99;46.51
13387;BME280;6763;48.524;9.044;2022-11-24T11:14:12;97555.66;;;16.18;46.52
13387;BME280;6763;48.524;9.044;2022-11-24T11:16:54;97557.63;;;16.32;45.57
13387;BME280;6763;48.524;9.044;2022-11-24T11:19:37;97555.53;;;16.40;45.00
13387;BME280;6763;48.524;9.044;2022-11-24T11:27:27;97556.69;;;16.53;45.22
13387;BME280;6763;48.524;9.044;2022-11-24T11:29:53;97550.16;;;16.43;45.67
13387;BME280;6763;48.524;9.044;2022-11-24T11:32:22;97556.72;;;16.33;45.11
13387;BME280;6763;48.524;9.044;2022-11-24T11:34:49;97551.50;;;16.33;45.56
13387;BME280;6763;48.524;9.044;2022-11-24T11:37:17;97550.28;;;16.60;44.27
13387;BME280;6763;48.524;9.044;2022-11-24T11:39:52;97552.88;;;16.79;43.79
13387;BME280;6763;48.524;9.044;2022-11-24T11:47:35;97559.41;;;16.50;44.47
13387;BME280;6763;48.524;9.044;2022-11-24T11:50:02;97566.09;;;16.37;43.86
13387;BME280;6763;48.524;9.044;2022-11-24T12:06:40;97567.88;;;17.11;39.96
13387;BME280;6763;48.524;9.044;2022-11-24T12:11:33;97572.59;;;16.86;39.87
13387;BME280;6763;48.524;9.044;2022-11-24T12:14:16;97569.81;;;16.89;39.51
13387;BME280;6763;48.524;9.044;2022-11-24T12:17:05;97584.19;;;16.80;39.78
13387;BME280;6763;48.524;9.044;2022-11-24T12:19:44;97592.38;;;16.72;39.30
13387;BME280;6763;48.524;9.044;2022-11-24T12:30:02;97595.09;;;17.07;38.50
13387;BME280;6763;48.524;9.044;2022-11-24T12:38:19;97613.81;;;17.52;36.58
13387;BME280;6763;48.524;9.044;2022-11-24T12:41:23;97606.84;;;17.34;36.96
13387;BME280;6763;48.524;9.044;2022-11-24T12:43:57;97603.41;;;17.15;36.74
13387;BME280;6763;48.524;9.044;2022-11-24T12:46:50;97612.13;;;16.97;36.58
13387;BME280;6763;48.524;9.044;2022-11-24T12:49:43;97597.38;;;17.14;37.07
13387;BME280;6763;48.524;9.044;2022-11-24T12:54:46;97599.56;;;18.26;35.16
13387;BME280;6763;48.524;9.044;2022-11-24T13:00:03;97587.97;;;18.47;34.28
13387;BME280;6763;48.524;9.044;2022-11-24T13:08:03;97585.78;;;18.23;34.43
13387;BME280;6763;48.524;9.044;2022-11-24T13:10:37;97601.84;;;18.00;34.44
13387;BME280;6763;48.524;9.044;2022-11-24T13:13:06;97598.47;;;17.80;34.75
13387;BME280;6763;48.524;9.044;2022-11-24T13:18:43;97588.59;;;18.03;34.68
13387;BME280;6763;48.524;9.044;2022-11-24T13:21:30;97597.38;;;18.34;34.59
13387;BME280;6763;48.524;9.044;2022-11-24T13:24:02;97600.09;;;18.66;33.61
13387;BME280;6763;48.524;9.044;2022-11-24T13:29:04;97614.78;;;19.01;32.27
13387;BME280;6763;48.524;9.044;2022-11-24T13:31:30;97612.94;;;19.18;32.15
13387;BME280;6763;48.524;9.044;2022-11-24T13:33:56;97612.75;;;19.22;31.88
13387;BME280;6763;48.524;9.044;2022-11-24T13:49:21;97614.91;;;19.76;31.80
13387;BME280;6763;48.524;9.044;2022-11-24T13:51:46;97630.34;;;19.35;31.71
13387;BME280;6763;48.524;9.044;2022-11-24T13:54:11;97628.56;;;19.20;32.00
13387;BME280;6763;48.524;9.044;2022-11-24T13:56:37;97629.75;;;19.30;31.81
13387;BME280;6763;48.524;9.044;2022-11-24T13:59:16;97625.44;;;19.60;31.55
13387;BME280;6763;48.524;9.044;2022-11-24T14:01:44;97624.91;;;19.99;31.38
13387;BME280;6763;48.524;9.044;2022-11-24T14:04:23;97623.22;;;20.42;30.77
13387;BME280;6763;48.524;9.044;2022-11-24T14:12:11;97617.97;;;20.70;29.62
13387;BME280;6763;48.524;9.044;2022-11-24T14:14:38;97616.59;;;20.65;29.43
13387;BME280;6763;48.524;9.044;2022-11-24T14:17:12;97620.34;;;20.75;29.40
13387;BME280;6763;48.524;9.044;2022-11-24T14:19:40;97620.34;;;20.75;28.58
13387;BME280;6763;48.524;9.044;2022-11-24T14:22:18;97618.63;;;20.46;28.93
13387;BME280;6763;48.524;9.044;2022-11-24T14:24:50;97609.16;;;20.13;29.00
13387;BME280;6763;48.524;9.044;2022-11-24T14:27:20;97621.56;;;20.11;29.37
13387;BME280;6763;48.524;9.044;2022-11-24T14:29:55;97612.63;;;20.00;29.17
13387;BME280;6763;48.524;9.044;2022-11-24T14:32:22;97614.81;;;19.77;29.50
13387;BME280;6763;48.524;9.044;2022-11-24T14:34:47;97607.50;;;19.53;29.75
13387;BME280;6763;48.524;9.044;2022-11-24T14:37:13;97609.44;;;19.49;30.13
13387;BME280;6763;48.524;9.044;2022-11-24T14:39:41;97605.03;;;19.34;30.24
13387;BME280;6763;48.524;9.044;2022-11-24T14:42:23;97612.75;;;19.22;30.25
13387;BME280;6763;48.524;9.044;2022-11-24T14:47:27;97620.03;;;18.85;30.79
13387;BME280;6763;48.524;9.044;2022-11-24T14:49:53;97626.56;;;18.61;30.99
13387;BME280;6763;48.524;9.044;2022-11-24T14:52:21;97628.84;;;18.51;31.21
13387;BME280;6763;48.524;9.044;2022-11-24T14:54:51;97638.00;;;18.43;31.82
13387;BME280;6763;48.524;9.044;2022-11-24T15:00:27;97634.56;;;18.25;32.72
13387;BME280;6763;48.524;9.044;2022-11-24T15:02:55;97641.13;;;18.00;33.53
13387;BME280;6763;48.524;9.044;2022-11-24T15:05:51;97645.78;;;17.59;34.66
13387;BME280;6763;48.524;9.044;2022-11-24T15:08:17;97650.34;;;17.18;35.75
13387;BME280;6763;48.524;9.044;2022-11-24T15:10:43;97649.75;;;16.76;36.74
13387;BME280;6763;48.524;9.044;2022-11-24T15:13:23;97654.34;;;16.30;37.55